^^
Saratoga-Weather Station Historical Data
Daily Summary for June 23, 2022 Units:  Both    English   Metric
Daily Weekly Monthly Yearly Custom
  High: Low: Average:
Temperature: 86.5 °F /  30.3 °C 61.5 °F /  16.4 °C 73 °F /  22.8 °C
Dew Point: 69.8 °F /  21 °C 60.1 °F /  15.6 °C 64.8 °F /  18.2 °C
Humidity: 96% 48% 77%
Wind Speed: 13mph /  20.9km/h - 0.9mph /  1.4km/h
Wind Gust: 22mph /  35.4km/h - -
Wind- - SSE
Pressure: 29.9 in /  1011.2 hPa 29.7 in /  1005.4 hPa -
Precipitation: 0.38 in /  9.7 mm    
Historical Graphs
 
 
Tabular Data for June 23, 2022
Time Temperature Dew Point Pressure Wind Wind Speed Wind Gust Humidity Rainfall Rate (Hourly) solar
00:04 67.5 °F /  19.7 °C 65.1 °F /  18.4 °C 29.8in /  1010.2hPa Calm     92% 0in /  0.0mm 0 W/m2
00:09 67.5 °F /  19.7 °C 65.1 °F /  18.4 °C 29.8in /  1010.2hPa Calm     92% 0in /  0.0mm 0 W/m2
00:14 67.5 °F /  19.7 °C 65.1 °F /  18.4 °C 29.8in /  1010.2hPa Calm     92% 0in /  0.0mm 0 W/m2
00:19 67.3 °F /  19.6 °C 64.9 °F /  18.3 °C 29.8in /  1010.2hPa Calm     92% 0in /  0.0mm 0 W/m2
00:24 67.1 °F /  19.5 °C 64.8 °F /  18.2 °C 29.8in /  1010.2hPa Calm     92% 0in /  0.0mm 0 W/m2
00:29 66.9 °F /  19.4 °C 64.6 °F /  18.1 °C 29.8in /  1010.2hPa Calm     92% 0in /  0.0mm 0 W/m2
00:34 66.7 °F /  19.3 °C 64.4 °F /  18 °C 29.8in /  1010.2hPa Calm     92% 0in /  0.0mm 0 W/m2
00:39 66.7 °F /  19.3 °C 64.4 °F /  18 °C 29.8in /  1010.2hPa Calm     92% 0in /  0.0mm 0 W/m2
00:44 66.6 °F /  19.2 °C 64.2 °F /  17.9 °C 29.8in /  1010.2hPa Calm     92% 0in /  0.0mm 0 W/m2
00:49 66.4 °F /  19.1 °C 64 °F /  17.8 °C 29.8in /  1010.2hPa Calm     92% 0in /  0.0mm 0 W/m2
00:54 66.2 °F /  19 °C 63.9 °F /  17.7 °C 29.8in /  1010.2hPa Calm     92% 0in /  0.0mm 0 W/m2
00:59 66 °F /  18.9 °C 63.9 °F /  17.7 °C 29.8in /  1010.2hPa Calm     93% 0in /  0.0mm 0 W/m2
01:04 66 °F /  18.9 °C 63.9 °F /  17.7 °C 29.8in /  1010.2hPa Calm     93% 0in /  0.0mm 0 W/m2
01:09 65.8 °F /  18.8 °C 63.7 °F /  17.6 °C 29.8in /  1010.2hPa Calm     93% 0in /  0.0mm 0 W/m2
01:14 65.8 °F /  18.8 °C 63.7 °F /  17.6 °C 29.8in /  1010.2hPa Calm     93% 0in /  0.0mm 0 W/m2
01:19 65.7 °F /  18.7 °C 63.5 °F /  17.5 °C 29.8in /  1010.2hPa Calm     93% 0in /  0.0mm 0 W/m2
01:24 65.7 °F /  18.7 °C 63.5 °F /  17.5 °C 29.8in /  1010.2hPa Calm     93% 0in /  0.0mm 0 W/m2
01:29 65.5 °F /  18.6 °C 63.3 °F /  17.4 °C 29.8in /  1010.2hPa Calm     93% 0in /  0.0mm 0 W/m2
01:35 65.3 °F /  18.5 °C 63.1 °F /  17.3 °C 29.8in /  1010.2hPa Calm     93% 0in /  0.0mm 0 W/m2
01:40 65.1 °F /  18.4 °C 63 °F /  17.2 °C 29.8in /  1010.2hPa Calm     93% 0in /  0.0mm 0 W/m2
01:45 65.1 °F /  18.4 °C 63 °F /  17.2 °C 29.8in /  1010.2hPa Calm     93% 0in /  0.0mm 0 W/m2
01:50 64.9 °F /  18.3 °C 62.8 °F /  17.1 °C 29.8in /  1010.2hPa Calm     93% 0in /  0.0mm 0 W/m2
01:55 64.8 °F /  18.2 °C 63 °F /  17.2 °C 29.8in /  1010.2hPa Calm     94% 0in /  0.0mm 0 W/m2
02:00 64.8 °F /  18.2 °C 63 °F /  17.2 °C 29.8in /  1010.2hPa Calm     94% 0in /  0.0mm 0 W/m2
02:05 64.6 °F /  18.1 °C 62.8 °F /  17.1 °C 29.8in /  1010.2hPa Calm     94% 0in /  0.0mm 0 W/m2
02:10 64.4 °F /  18 °C 62.6 °F /  17 °C 29.8in /  1010.2hPa Calm     94% 0in /  0.0mm 0 W/m2
02:15 64.4 °F /  18 °C 62.6 °F /  17 °C 29.8in /  1010.2hPa Calm     94% 0in /  0.0mm 0 W/m2
02:20 64.2 °F /  17.9 °C 62.4 °F /  16.9 °C 29.8in /  1010.2hPa Calm     94% 0in /  0.0mm 0 W/m2
02:25 64.2 °F /  17.9 °C 62.4 °F /  16.9 °C 29.8in /  1010.2hPa Calm     94% 0in /  0.0mm 0 W/m2
02:30 64 °F /  17.8 °C 62.2 °F /  16.8 °C 29.8in /  1010.2hPa Calm     94% 0in /  0.0mm 0 W/m2
02:35 64 °F /  17.8 °C 62.2 °F /  16.8 °C 29.8in /  1010.2hPa Calm     94% 0in /  0.0mm 0 W/m2
02:40 64 °F /  17.8 °C 62.2 °F /  16.8 °C 29.8in /  1010.2hPa Calm     94% 0in /  0.0mm 0 W/m2
02:45 63.9 °F /  17.7 °C 62.1 °F /  16.7 °C 29.8in /  1010.2hPa Calm     94% 0in /  0.0mm 0 W/m2
02:50 63.9 °F /  17.7 °C 62.1 °F /  16.7 °C 29.8in /  1009.8hPa Calm     94% 0in /  0.0mm 0 W/m2
02:55 63.7 °F /  17.6 °C 61.9 °F /  16.6 °C 29.8in /  1010.2hPa Calm     94% 0in /  0.0mm 0 W/m2
03:00 63.7 °F /  17.6 °C 62.2 °F /  16.8 °C 29.8in /  1009.8hPa Calm     95% 0in /  0.0mm 0 W/m2
03:05 63.7 °F /  17.6 °C 62.2 °F /  16.8 °C 29.8in /  1010.2hPa Calm     95% 0in /  0.0mm 0 W/m2
03:10 63.5 °F /  17.5 °C 62.1 °F /  16.7 °C 29.8in /  1010.2hPa Calm     95% 0in /  0.0mm 0 W/m2
03:15 63.5 °F /  17.5 °C 62.1 °F /  16.7 °C 29.8in /  1010.2hPa Calm     95% 0in /  0.0mm 0 W/m2
03:20 63.3 °F /  17.4 °C 61.9 °F /  16.6 °C 29.8in /  1010.2hPa Calm     95% 0in /  0.0mm 0 W/m2
03:25 63.3 °F /  17.4 °C 61.9 °F /  16.6 °C 29.8in /  1010.2hPa Calm     95% 0in /  0.0mm 0 W/m2
03:30 63.1 °F /  17.3 °C 61.7 °F /  16.5 °C 29.8in /  1010.2hPa Calm     95% 0in /  0.0mm 0 W/m2
03:35 63.1 °F /  17.3 °C 61.7 °F /  16.5 °C 29.8in /  1010.2hPa Calm     95% 0in /  0.0mm 0 W/m2
03:40 63 °F /  17.2 °C 61.5 °F /  16.4 °C 29.8in /  1010.2hPa Calm     95% 0in /  0.0mm 0 W/m2
03:45 62.8 °F /  17.1 °C 61.3 °F /  16.3 °C 29.8in /  1010.2hPa Calm   2mph /  3.2km/h 95% 0in /  0.0mm 0 W/m2
03:50 62.8 °F /  17.1 °C 61.3 °F /  16.3 °C 29.8in /  1010.2hPa SSE 0.9mph /  1.4km/h 1mph /  1.6km/h 95% 0in /  0.0mm 0 W/m2
03:55 62.8 °F /  17.1 °C 61.3 °F /  16.3 °C 29.8in /  1010.2hPa Calm   2mph /  3.2km/h 95% 0in /  0.0mm 0 W/m2
04:00 62.4 °F /  16.9 °C 61 °F /  16.1 °C 29.8in /  1010.2hPa Calm   1mph /  1.6km/h 95% 0in /  0.0mm 0 W/m2
04:05 62.4 °F /  16.9 °C 61 °F /  16.1 °C 29.8in /  1010.2hPa Calm     95% 0in /  0.0mm 0 W/m2
04:10 62.4 °F /  16.9 °C 61 °F /  16.1 °C 29.8in /  1010.2hPa Calm   1mph /  1.6km/h 95% 0in /  0.0mm 0 W/m2
04:15 62.4 °F /  16.9 °C 61 °F /  16.1 °C 29.8in /  1010.2hPa Calm     95% 0in /  0.0mm 0 W/m2
04:20 62.4 °F /  16.9 °C 61 °F /  16.1 °C 29.8in /  1010.2hPa Calm     95% 0in /  0.0mm 0 W/m2
04:25 62.2 °F /  16.8 °C 60.8 °F /  16 °C 29.8in /  1010.2hPa Calm     95% 0in /  0.0mm 0 W/m2
04:30 62.2 °F /  16.8 °C 60.8 °F /  16 °C 29.8in /  1010.2hPa Calm     95% 0in /  0.0mm 0 W/m2
04:35 62.2 °F /  16.8 °C 60.8 °F /  16 °C 29.8in /  1010.2hPa Calm     95% 0in /  0.0mm 0 W/m2
04:40 62.2 °F /  16.8 °C 60.8 °F /  16 °C 29.8in /  1010.2hPa Calm     95% 0in /  0.0mm 0 W/m2
04:45 62.2 °F /  16.8 °C 60.8 °F /  16 °C 29.8in /  1010.2hPa Calm     95% 0in /  0.0mm 0 W/m2
04:50 62.1 °F /  16.7 °C 60.6 °F /  15.9 °C 29.8in /  1010.2hPa Calm     95% 0in /  0.0mm 0 W/m2
04:55 62.1 °F /  16.7 °C 60.6 °F /  15.9 °C 29.8in /  1010.2hPa Calm     95% 0in /  0.0mm 0 W/m2
05:00 61.9 °F /  16.6 °C 60.4 °F /  15.8 °C 29.8in /  1010.2hPa Calm     95% 0in /  0.0mm 0 W/m2
05:05 61.9 °F /  16.6 °C 60.8 °F /  16 °C 29.8in /  1010.2hPa Calm     96% 0in /  0.0mm 0 W/m2
05:10 61.9 °F /  16.6 °C 60.8 °F /  16 °C 29.8in /  1010.2hPa Calm     96% 0in /  0.0mm 0 W/m2
05:15 61.9 °F /  16.6 °C 60.8 °F /  16 °C 29.8in /  1010.2hPa Calm     96% 0in /  0.0mm 0 W/m2
05:20 61.9 °F /  16.6 °C 60.8 °F /  16 °C 29.8in /  1010.5hPa Calm     96% 0in /  0.0mm 0 W/m2
05:25 61.7 °F /  16.5 °C 60.6 °F /  15.9 °C 29.8in /  1010.5hPa Calm     96% 0in /  0.0mm 0 W/m2
05:30 61.5 °F /  16.4 °C 60.4 °F /  15.8 °C 29.8in /  1010.5hPa Calm     96% 0in /  0.0mm 0 W/m2
05:35 61.5 °F /  16.4 °C 60.1 °F /  15.6 °C 29.8in /  1010.5hPa Calm     95% 0in /  0.0mm 0 W/m2
05:40 61.5 °F /  16.4 °C 60.4 °F /  15.8 °C 29.9in /  1010.8hPa Calm     96% 0in /  0.0mm 5 W/m2
05:45 61.5 °F /  16.4 °C 60.4 °F /  15.8 °C 29.8in /  1010.5hPa Calm     96% 0in /  0.0mm 5 W/m2
05:50 61.5 °F /  16.4 °C 60.4 °F /  15.8 °C 29.8in /  1010.5hPa Calm     96% 0in /  0.0mm 7 W/m2
05:55 61.5 °F /  16.4 °C 60.4 °F /  15.8 °C 29.8in /  1010.5hPa Calm     96% 0in /  0.0mm 11 W/m2
06:00 61.7 °F /  16.5 °C 60.6 °F /  15.9 °C 29.8in /  1010.5hPa Calm     96% 0in /  0.0mm 11 W/m2
06:05 61.7 °F /  16.5 °C 60.6 °F /  15.9 °C 29.8in /  1010.5hPa Calm     96% 0in /  0.0mm 11 W/m2
06:10 61.7 °F /  16.5 °C 60.6 °F /  15.9 °C 29.8in /  1010.5hPa Calm     96% 0in /  0.0mm 11 W/m2
06:15 61.5 °F /  16.4 °C 60.4 °F /  15.8 °C 29.8in /  1010.5hPa Calm     96% 0in /  0.0mm 14 W/m2
06:20 61.5 °F /  16.4 °C 60.4 °F /  15.8 °C 29.8in /  1010.5hPa Calm     96% 0in /  0.0mm 21 W/m2
06:25 61.5 °F /  16.4 °C 60.4 °F /  15.8 °C 29.8in /  1010.2hPa Calm   1mph /  1.6km/h 96% 0in /  0.0mm 32 W/m2
06:30 61.5 °F /  16.4 °C 60.4 °F /  15.8 °C 29.8in /  1010.2hPa Calm     96% 0in /  0.0mm 42 W/m2
06:35 61.9 °F /  16.6 °C 60.8 °F /  16 °C 29.8in /  1010.2hPa Calm     96% 0in /  0.0mm 49 W/m2
06:40 62.1 °F /  16.7 °C 61 °F /  16.1 °C 29.8in /  1010.5hPa Calm     96% 0in /  0.0mm 51 W/m2
06:45 62.2 °F /  16.8 °C 61.2 °F /  16.2 °C 29.8in /  1010.5hPa Calm     96% 0in /  0.0mm 47 W/m2
06:50 62.6 °F /  17 °C 61.5 °F /  16.4 °C 29.8in /  1010.5hPa Calm   3mph /  4.8km/h 96% 0in /  0.0mm 49 W/m2
06:55 62.8 °F /  17.1 °C 61.7 °F /  16.5 °C 29.8in /  1010.5hPa ENE 0.9mph /  1.4km/h 1mph /  1.6km/h 96% 0in /  0.0mm 67 W/m2
07:00 62.8 °F /  17.1 °C 61.7 °F /  16.5 °C 29.8in /  1010.5hPa ENE 0.9mph /  1.4km/h 3mph /  4.8km/h 96% 0in /  0.0mm 79 W/m2
07:05 63 °F /  17.2 °C 61.9 °F /  16.6 °C 29.8in /  1010.5hPa NE 2.9mph /  4.7km/h 3mph /  4.8km/h 96% 0in /  0.0mm 81 W/m2
07:10 63.1 °F /  17.3 °C 62.1 °F /  16.7 °C 29.8in /  1010.5hPa East 0.9mph /  1.4km/h 3mph /  4.8km/h 96% 0in /  0.0mm 76 W/m2
07:15 63.5 °F /  17.5 °C 62.4 °F /  16.9 °C 29.9in /  1010.8hPa ENE 0.9mph /  1.4km/h 2mph /  3.2km/h 96% 0in /  0.0mm 76 W/m2
07:20 63.7 °F /  17.6 °C 62.6 °F /  17 °C 29.9in /  1010.8hPa East 2mph /  3.2km/h 3mph /  4.8km/h 96% 0in /  0.0mm 137 W/m2
07:25 64 °F /  17.8 °C 63 °F /  17.2 °C 29.9in /  1010.8hPa Calm   1mph /  1.6km/h 96% 0in /  0.0mm 160 W/m2
07:30 64.8 °F /  18.2 °C 63.7 °F /  17.6 °C 29.9in /  1010.8hPa NE 2mph /  3.2km/h 3mph /  4.8km/h 96% 0in /  0.0mm 167 W/m2
07:35 65.5 °F /  18.6 °C 64 °F /  17.8 °C 29.9in /  1010.8hPa Calm   2mph /  3.2km/h 95% 0in /  0.0mm 179 W/m2
07:40 66 °F /  18.9 °C 64.2 °F /  17.9 °C 29.9in /  1010.8hPa Calm   2mph /  3.2km/h 94% 0in /  0.0mm 193 W/m2
07:45 66.7 °F /  19.3 °C 64.6 °F /  18.1 °C 29.9in /  1010.8hPa Calm   1mph /  1.6km/h 93% 0in /  0.0mm 204 W/m2
07:50 67.5 °F /  19.7 °C 64.4 °F /  18 °C 29.9in /  1010.8hPa NE 2mph /  3.2km/h 2mph /  3.2km/h 90% 0in /  0.0mm 214 W/m2
07:55 68.2 °F /  20.1 °C 64.4 °F /  18 °C 29.9in /  1010.8hPa NE 0.9mph /  1.4km/h 2mph /  3.2km/h 88% 0in /  0.0mm 227 W/m2
08:00 68.5 °F /  20.3 °C 64.8 °F /  18.2 °C 29.9in /  1010.8hPa NE 0.9mph /  1.4km/h 2mph /  3.2km/h 88% 0in /  0.0mm 241 W/m2
08:05 69.1 °F /  20.6 °C 64.8 °F /  18.2 °C 29.9in /  1010.8hPa East 0.9mph /  1.4km/h 2mph /  3.2km/h 86% 0in /  0.0mm 255 W/m2
08:10 69.3 °F /  20.7 °C 64.9 °F /  18.3 °C 29.9in /  1010.8hPa East 0.9mph /  1.4km/h 2mph /  3.2km/h 86% 0in /  0.0mm 269 W/m2
08:15 70 °F /  21.1 °C 65.3 °F /  18.5 °C 29.9in /  1011.2hPa ENE 0.9mph /  1.4km/h 5mph /  8km/h 85% 0in /  0.0mm 279 W/m2
08:20 70.5 °F /  21.4 °C 65.5 °F /  18.6 °C 29.9in /  1011.2hPa East 0.9mph /  1.4km/h 2mph /  3.2km/h 84% 0in /  0.0mm 292 W/m2
08:25 71.1 °F /  21.7 °C 65.7 °F /  18.7 °C 29.9in /  1011.2hPa ENE 0.9mph /  1.4km/h 5mph /  8km/h 83% 0in /  0.0mm 183 W/m2
08:30 71.2 °F /  21.8 °C 65.5 °F /  18.6 °C 29.9in /  1011.2hPa East 2mph /  3.2km/h 3mph /  4.8km/h 82% 0in /  0.0mm 146 W/m2
08:35 71.1 °F /  21.7 °C 65.7 °F /  18.7 °C 29.9in /  1011.2hPa SE 0.9mph /  1.4km/h 2mph /  3.2km/h 83% 0in /  0.0mm 84 W/m2
08:40 71.2 °F /  21.8 °C 65.5 °F /  18.6 °C 29.9in /  1011.2hPa ESE 2mph /  3.2km/h 3mph /  4.8km/h 82% 0in /  0.0mm 84 W/m2
08:45 71.4 °F /  21.9 °C 65.7 °F /  18.7 °C 29.9in /  1010.8hPa East 2mph /  3.2km/h 3mph /  4.8km/h 82% 0in /  0.0mm 77 W/m2
08:50 71.4 °F /  21.9 °C 65.3 °F /  18.5 °C 29.9in /  1011.2hPa NNE 0.9mph /  1.4km/h 4mph /  6.4km/h 81% 0in /  0.0mm 81 W/m2
08:55 71.2 °F /  21.8 °C 65.1 °F /  18.4 °C 29.9in /  1011.2hPa ESE 4mph /  6.4km/h 4mph /  6.4km/h 81% 0in /  0.0mm 81 W/m2
09:00 71.2 °F /  21.8 °C 65.5 °F /  18.6 °C 29.9in /  1011.2hPa ESE 2.9mph /  4.7km/h 4mph /  6.4km/h 82% 0in /  0.0mm 84 W/m2
09:05 71.8 °F /  22.1 °C 65.7 °F /  18.7 °C 29.9in /  1011.2hPa ENE 2.9mph /  4.7km/h 6mph /  9.7km/h 81% 0in /  0.0mm 95 W/m2
09:10 72 °F /  22.2 °C 65.8 °F /  18.8 °C 29.9in /  1011.2hPa Calm   4mph /  6.4km/h 81% 0in /  0.0mm 93 W/m2
09:15 72.1 °F /  22.3 °C 66 °F /  18.9 °C 29.9in /  1011.2hPa East 2mph /  3.2km/h 3mph /  4.8km/h 81% 0in /  0.0mm 105 W/m2
09:21 72.3 °F /  22.4 °C 66.6 °F /  19.2 °C 29.9in /  1011.2hPa ENE 2mph /  3.2km/h 3mph /  4.8km/h 82% 0in /  0.0mm 130 W/m2
09:26 72.9 °F /  22.7 °C 66.4 °F /  19.1 °C 29.9in /  1011.2hPa East 2.9mph /  4.7km/h 3mph /  4.8km/h 80% 0in /  0.0mm 109 W/m2
09:31 73 °F /  22.8 °C 66.2 °F /  19 °C 29.9in /  1011.2hPa NNW 2mph /  3.2km/h 3mph /  4.8km/h 79% 0in /  0.0mm 93 W/m2
09:36 72.9 °F /  22.7 °C 66.4 °F /  19.1 °C 29.9in /  1011.2hPa Calm   1mph /  1.6km/h 80% 0in /  0.0mm 116 W/m2
09:41 73.2 °F /  22.9 °C 66.7 °F /  19.3 °C 29.9in /  1011.2hPa ENE 0.9mph /  1.4km/h 3mph /  4.8km/h 80% 0in /  0.0mm 135 W/m2
09:46 73.8 °F /  23.2 °C 66.4 °F /  19.1 °C 29.9in /  1010.8hPa Calm   4mph /  6.4km/h 78% 0in /  0.0mm 148 W/m2
09:51 73.2 °F /  22.9 °C 66 °F /  18.9 °C 29.9in /  1010.8hPa North 2mph /  3.2km/h 5mph /  8km/h 78% 0in /  0.0mm 169 W/m2
09:56 73 °F /  22.8 °C 66.2 °F /  19 °C 29.9in /  1011.2hPa Calm   1mph /  1.6km/h 79% 0in /  0.0mm 195 W/m2
10:01 73.8 °F /  23.2 °C 66.9 °F /  19.4 °C 29.9in /  1010.8hPa ESE 2.9mph /  4.7km/h 5mph /  8km/h 79% 0in /  0.0mm 378 W/m2
10:06 74.5 °F /  23.6 °C 67.1 °F /  19.5 °C 29.9in /  1010.8hPa NE 2.9mph /  4.7km/h 3mph /  4.8km/h 78% 0in /  0.0mm 578 W/m2
10:11 74.8 °F /  23.8 °C 67.1 °F /  19.5 °C 29.9in /  1010.8hPa ESE 2mph /  3.2km/h 6mph /  9.7km/h 77% 0in /  0.0mm 621 W/m2
10:16 74.8 °F /  23.8 °C 66.7 °F /  19.3 °C 29.9in /  1010.8hPa ENE 4mph /  6.4km/h 4mph /  6.4km/h 76% 0in /  0.0mm 186 W/m2
10:21 74.8 °F /  23.8 °C 67.1 °F /  19.5 °C 29.9in /  1010.8hPa East 0.9mph /  1.4km/h 6mph /  9.7km/h 77% 0in /  0.0mm 250 W/m2
10:26 75.2 °F /  24 °C 67.8 °F /  19.9 °C 29.9in /  1010.8hPa East 4mph /  6.4km/h 4mph /  6.4km/h 78% 0in /  0.0mm 499 W/m2
10:31 75.6 °F /  24.2 °C 67.8 °F /  19.9 °C 29.9in /  1010.8hPa East 2mph /  3.2km/h 3mph /  4.8km/h 77% 0in /  0.0mm 638 W/m2
10:36 75.7 °F /  24.3 °C 67.6 °F /  19.8 °C 29.9in /  1010.8hPa Calm   6mph /  9.7km/h 76% 0in /  0.0mm 682 W/m2
10:41 75.9 °F /  24.4 °C 67.5 °F /  19.7 °C 29.9in /  1010.8hPa ESE 0.9mph /  1.4km/h 3mph /  4.8km/h 75% 0in /  0.0mm 186 W/m2
10:46 75.6 °F /  24.2 °C 67.1 °F /  19.5 °C 29.9in /  1010.8hPa Calm   2mph /  3.2km/h 75% 0in /  0.0mm 311 W/m2
10:51 75.6 °F /  24.2 °C 67.5 °F /  19.7 °C 29.9in /  1010.8hPa Calm   3mph /  4.8km/h 76% 0in /  0.0mm 260 W/m2
10:56 75.7 °F /  24.3 °C 67.3 °F /  19.6 °C 29.8in /  1010.5hPa ENE 0.9mph /  1.4km/h 4mph /  6.4km/h 75% 0in /  0.0mm 287 W/m2
11:01 75.7 °F /  24.3 °C 67.3 °F /  19.6 °C 29.9in /  1010.8hPa ENE 2mph /  3.2km/h 3mph /  4.8km/h 75% 0in /  0.0mm 359 W/m2
11:06 75.9 °F /  24.4 °C 67.5 °F /  19.7 °C 29.8in /  1010.5hPa Calm   2mph /  3.2km/h 75% 0in /  0.0mm 745 W/m2
11:11 76.3 °F /  24.6 °C 67.5 °F /  19.7 °C 29.8in /  1010.5hPa SE 0.9mph /  1.4km/h 6mph /  9.7km/h 74% 0in /  0.0mm 279 W/m2
11:16 76.1 °F /  24.5 °C 67.6 °F /  19.8 °C 29.8in /  1010.5hPa NNE 0.9mph /  1.4km/h 2mph /  3.2km/h 75% 0in /  0.0mm 352 W/m2
11:21 76.3 °F /  24.6 °C 67.8 °F /  19.9 °C 29.8in /  1010.5hPa ESE 0.9mph /  1.4km/h 1mph /  1.6km/h 75% 0in /  0.0mm 863 W/m2
11:26 76.8 °F /  24.9 °C 67.8 °F /  19.9 °C 29.8in /  1010.5hPa Calm   3mph /  4.8km/h 74% 0in /  0.0mm 281 W/m2
11:31 77.2 °F /  25.1 °C 67.8 °F /  19.9 °C 29.8in /  1010.5hPa North 0.9mph /  1.4km/h 2mph /  3.2km/h 73% 0in /  0.0mm 186 W/m2
11:36 77 °F /  25 °C 67.3 °F /  19.6 °C 29.8in /  1010.5hPa NW 0.9mph /  1.4km/h 2mph /  3.2km/h 72% 0in /  0.0mm 396 W/m2
11:41 77.2 °F /  25.1 °C 67.5 °F /  19.7 °C 29.8in /  1010.5hPa West 0.9mph /  1.4km/h 3mph /  4.8km/h 72% 0in /  0.0mm 856 W/m2
11:46 77 °F /  25 °C 67.3 °F /  19.6 °C 29.8in /  1010.2hPa WNW 0.9mph /  1.4km/h 2mph /  3.2km/h 72% 0in /  0.0mm 745 W/m2
11:51 77.4 °F /  25.2 °C 67.6 °F /  19.8 °C 29.8in /  1010.5hPa Calm   2mph /  3.2km/h 72% 0in /  0.0mm 745 W/m2
11:56 77.5 °F /  25.3 °C 67.5 °F /  19.7 °C 29.8in /  1010.5hPa West 0.9mph /  1.4km/h 3mph /  4.8km/h 71% 0in /  0.0mm 255 W/m2
12:01 77.7 °F /  25.4 °C 68 °F /  20 °C 29.8in /  1010.5hPa Calm   2mph /  3.2km/h 72% 0in /  0.0mm 323 W/m2
12:06 78.3 °F /  25.7 °C 68 °F /  20 °C 29.8in /  1010.2hPa Calm   3mph /  4.8km/h 71% 0in /  0.0mm 504 W/m2
12:11 79 °F /  26.1 °C 68.7 °F /  20.4 °C 29.8in /  1010.2hPa ESE 4mph /  6.4km/h 5mph /  8km/h 71% 0in /  0.0mm 559 W/m2
12:16 78.6 °F /  25.9 °C 67.1 °F /  19.5 °C 29.8in /  1010.5hPa NW 2mph /  3.2km/h 2mph /  3.2km/h 68% 0in /  0.0mm 265 W/m2
12:21 78.4 °F /  25.8 °C 67.8 °F /  19.9 °C 29.8in /  1010.2hPa ESE 2mph /  3.2km/h 6mph /  9.7km/h 70% 0in /  0.0mm 287 W/m2
12:26 78.4 °F /  25.8 °C 67.5 °F /  19.7 °C 29.8in /  1010.2hPa East 2.9mph /  4.7km/h 6mph /  9.7km/h 69% 0in /  0.0mm 213 W/m2
12:31 78.3 °F /  25.7 °C 66.7 °F /  19.3 °C 29.8in /  1010.2hPa Calm   1mph /  1.6km/h 68% 0in /  0.0mm 234 W/m2
12:36 78.3 °F /  25.7 °C 67.3 °F /  19.6 °C 29.8in /  1010.2hPa Calm   6mph /  9.7km/h 69% 0in /  0.0mm 243 W/m2
12:41 78.4 °F /  25.8 °C 67.8 °F /  19.9 °C 29.8in /  1010.2hPa Calm   3mph /  4.8km/h 70% 0in /  0.0mm 995 W/m2
12:46 79.2 °F /  26.2 °C 67.6 °F /  19.8 °C 29.8in /  1010.2hPa Calm   4mph /  6.4km/h 68% 0in /  0.0mm 891 W/m2
12:51 80.1 °F /  26.7 °C 66.7 °F /  19.3 °C 29.8in /  1010.2hPa ENE 0.9mph /  1.4km/h 2mph /  3.2km/h 64% 0in /  0.0mm 998 W/m2
12:56 80.4 °F /  26.9 °C 67.6 °F /  19.8 °C 29.8in /  1009.8hPa East 2.9mph /  4.7km/h 7mph /  11.3km/h 65% 0in /  0.0mm 816 W/m2
13:01 81 °F /  27.2 °C 67.1 °F /  19.5 °C 29.8in /  1009.8hPa East 2.9mph /  4.7km/h 5mph /  8km/h 63% 0in /  0.0mm 253 W/m2
13:06 81 °F /  27.2 °C 66.2 °F /  19 °C 29.8in /  1009.8hPa North 2mph /  3.2km/h 3mph /  4.8km/h 61% 0in /  0.0mm 974 W/m2
13:11 81 °F /  27.2 °C 66.7 °F /  19.3 °C 29.8in /  1009.8hPa WNW 2.9mph /  4.7km/h 3mph /  4.8km/h 62% 0in /  0.0mm 946 W/m2
13:16 80.8 °F /  27.1 °C 66.6 °F /  19.2 °C 29.8in /  1009.8hPa ENE 2.9mph /  4.7km/h 3mph /  4.8km/h 62% 0in /  0.0mm 977 W/m2
13:21 81 °F /  27.2 °C 66.2 °F /  19 °C 29.8in /  1009.8hPa Calm   3mph /  4.8km/h 61% 0in /  0.0mm 1023 W/m2
13:26 81.3 °F /  27.4 °C 66.6 °F /  19.2 °C 29.8in /  1009.8hPa Calm   5mph /  8km/h 61% 0in /  0.0mm 1011 W/m2
13:31 82 °F /  27.8 °C 66.7 °F /  19.3 °C 29.8in /  1009.5hPa SE 2.9mph /  4.7km/h 4mph /  6.4km/h 60% 0in /  0.0mm 983 W/m2
13:36 82.6 °F /  28.1 °C 65.8 °F /  18.8 °C 29.8in /  1009.8hPa ENE 2mph /  3.2km/h 8mph /  12.9km/h 57% 0in /  0.0mm 937 W/m2
13:41 82.4 °F /  28 °C 64 °F /  17.8 °C 29.8in /  1009.5hPa West 2mph /  3.2km/h 2mph /  3.2km/h 54% 0in /  0.0mm 923 W/m2
13:46 82.2 °F /  27.9 °C 65.5 °F /  18.6 °C 29.8in /  1009.5hPa NW 0.9mph /  1.4km/h 3mph /  4.8km/h 57% 0in /  0.0mm 942 W/m2
13:51 82.6 °F /  28.1 °C 65.8 °F /  18.8 °C 29.8in /  1009.1hPa East 0.9mph /  1.4km/h 1mph /  1.6km/h 57% 0in /  0.0mm 942 W/m2
13:56 82.8 °F /  28.2 °C 64.4 °F /  18 °C 29.8in /  1009.1hPa West 4mph /  6.4km/h 7mph /  11.3km/h 54% 0in /  0.0mm 953 W/m2
14:01 82.8 °F /  28.2 °C 64.9 °F /  18.3 °C 29.8in /  1009.1hPa West 2mph /  3.2km/h 6mph /  9.7km/h 55% 0in /  0.0mm 949 W/m2
14:06 82.8 °F /  28.2 °C 66 °F /  18.9 °C 29.8in /  1009.1hPa NE 2mph /  3.2km/h 3mph /  4.8km/h 57% 0in /  0.0mm 972 W/m2
14:11 82.9 °F /  28.3 °C 65.1 °F /  18.4 °C 29.8in /  1009.1hPa SE 0.9mph /  1.4km/h 7mph /  11.3km/h 55% 0in /  0.0mm 947 W/m2
14:16 83.1 °F /  28.4 °C 66.7 °F /  19.3 °C 29.8in /  1009.1hPa SSW 2.9mph /  4.7km/h 4mph /  6.4km/h 58% 0in /  0.0mm 972 W/m2
14:21 83.5 °F /  28.6 °C 65.1 °F /  18.4 °C 29.8in /  1009.1hPa ESE 0.9mph /  1.4km/h 7mph /  11.3km/h 54% 0in /  0.0mm 967 W/m2
14:26 83.3 °F /  28.5 °C 64.4 °F /  18 °C 29.8in /  1009.1hPa Calm   3mph /  4.8km/h 53% 0in /  0.0mm 951 W/m2
14:31 83.5 °F /  28.6 °C 64 °F /  17.8 °C 29.8in /  1008.8hPa NNW 2mph /  3.2km/h 4mph /  6.4km/h 52% 0in /  0.0mm 946 W/m2
14:36 83.8 °F /  28.8 °C 65.5 °F /  18.6 °C 29.8in /  1008.8hPa SE 2.9mph /  4.7km/h 4mph /  6.4km/h 54% 0in /  0.0mm 965 W/m2
14:41 84.2 °F /  29 °C 65.7 °F /  18.7 °C 29.8in /  1008.8hPa NW 2mph /  3.2km/h 4mph /  6.4km/h 54% 0in /  0.0mm 969 W/m2
14:46 84.7 °F /  29.3 °C 65.7 °F /  18.7 °C 29.8in /  1008.8hPa ESE 4mph /  6.4km/h 5mph /  8km/h 53% 0in /  0.0mm 960 W/m2
14:51 84.7 °F /  29.3 °C 66.2 °F /  19 °C 29.8in /  1008.5hPa East 0.9mph /  1.4km/h 4mph /  6.4km/h 54% 0in /  0.0mm 958 W/m2
14:56 84.9 °F /  29.4 °C 65.8 °F /  18.8 °C 29.8in /  1008.5hPa East 2.9mph /  4.7km/h 6mph /  9.7km/h 53% 0in /  0.0mm 977 W/m2
15:01 85.1 °F /  29.5 °C 64.9 °F /  18.3 °C 29.8in /  1008.5hPa Calm   3mph /  4.8km/h 51% 0in /  0.0mm 1002 W/m2
15:06 84.7 °F /  29.3 °C 65.1 °F /  18.4 °C 29.8in /  1008.5hPa ESE 2mph /  3.2km/h 2mph /  3.2km/h 52% 0in /  0.0mm 204 W/m2
15:11 84.6 °F /  29.2 °C 64.9 °F /  18.3 °C 29.8in /  1008.5hPa East 0.9mph /  1.4km/h 2mph /  3.2km/h 52% 0in /  0.0mm 1014 W/m2
15:16 84.6 °F /  29.2 °C 64.9 °F /  18.3 °C 29.8in /  1008.5hPa ESE 2.9mph /  4.7km/h 3mph /  4.8km/h 52% 0in /  0.0mm 374 W/m2
15:21 84.7 °F /  29.3 °C 65.1 °F /  18.4 °C 29.8in /  1008.5hPa ESE 0.9mph /  1.4km/h 2mph /  3.2km/h 52% 0in /  0.0mm 969 W/m2
15:26 85.3 °F /  29.6 °C 64.6 °F /  18.1 °C 29.8in /  1008.5hPa East 2.9mph /  4.7km/h 4mph /  6.4km/h 50% 0in /  0.0mm 1011 W/m2
15:31 84.7 °F /  29.3 °C 63.5 °F /  17.5 °C 29.8in /  1008.5hPa WSW 0.9mph /  1.4km/h 4mph /  6.4km/h 49% 0in /  0.0mm 237 W/m2
15:36 84.2 °F /  29 °C 65.3 °F /  18.5 °C 29.8in /  1008.1hPa ENE 2mph /  3.2km/h 3mph /  4.8km/h 53% 0in /  0.0mm 227 W/m2
15:41 83.7 °F /  28.7 °C 63 °F /  17.2 °C 29.8in /  1008.1hPa Calm   2mph /  3.2km/h 50% 0in /  0.0mm 322 W/m2
15:46 83.7 °F /  28.7 °C 63.7 °F /  17.6 °C 29.8in /  1008.1hPa West 2.9mph /  4.7km/h 3mph /  4.8km/h 51% 0in /  0.0mm 257 W/m2
15:51 83.5 °F /  28.6 °C 63.5 °F /  17.5 °C 29.8in /  1008.1hPa Calm   1mph /  1.6km/h 51% 0in /  0.0mm 343 W/m2
15:57 83.7 °F /  28.7 °C 65.3 °F /  18.5 °C 29.8in /  1008.1hPa East 0.9mph /  1.4km/h 1mph /  1.6km/h 54% 0in /  0.0mm 311 W/m2
16:02 83.8 °F /  28.8 °C 64.4 °F /  18 °C 29.8in /  1008.1hPa West 2mph /  3.2km/h 2mph /  3.2km/h 52% 0in /  0.0mm 269 W/m2
16:07 84 °F /  28.9 °C 65.1 °F /  18.4 °C 29.8in /  1007.8hPa West 0.9mph /  1.4km/h 2mph /  3.2km/h 53% 0in /  0.0mm 330 W/m2
16:12 84 °F /  28.9 °C 66.2 °F /  19 °C 29.8in /  1007.8hPa NE 0.9mph /  1.4km/h 2mph /  3.2km/h 55% 0in /  0.0mm 295 W/m2
16:17 84.4 °F /  29.1 °C 65.3 °F /  18.5 °C 29.8in /  1007.8hPa Calm     53% 0in /  0.0mm 341 W/m2
16:22 84.6 °F /  29.2 °C 65.5 °F /  18.6 °C 29.8in /  1007.8hPa SE 4mph /  6.4km/h 4mph /  6.4km/h 53% 0in /  0.0mm 373 W/m2
16:27 84.7 °F /  29.3 °C 64.6 °F /  18.1 °C 29.8in /  1007.8hPa Calm   1mph /  1.6km/h 51% 0in /  0.0mm 835 W/m2
16:32 85.1 °F /  29.5 °C 64.4 °F /  18 °C 29.8in /  1007.5hPa ENE 2mph /  3.2km/h 3mph /  4.8km/h 50% 0in /  0.0mm 225 W/m2
16:37 85.5 °F /  29.7 °C 65.3 °F /  18.5 °C 29.8in /  1007.8hPa SSW 0.9mph /  1.4km/h 3mph /  4.8km/h 51% 0in /  0.0mm 853 W/m2
16:42 86.4 °F /  30.2 °C 64.9 °F /  18.3 °C 29.8in /  1007.5hPa SSE 0.9mph /  1.4km/h 5mph /  8km/h 49% 0in /  0.0mm 831 W/m2
16:47 86.5 °F /  30.3 °C 64.6 °F /  18.1 °C 29.8in /  1007.5hPa ESE 0.9mph /  1.4km/h 4mph /  6.4km/h 48% 0in /  0.0mm 220 W/m2
16:52 86.2 °F /  30.1 °C 64.8 °F /  18.2 °C 29.8in /  1007.5hPa ESE 0.9mph /  1.4km/h 3mph /  4.8km/h 49% 0in /  0.0mm 204 W/m2
16:57 85.8 °F /  29.9 °C 65.7 °F /  18.7 °C 29.8in /  1007.5hPa WNW 2mph /  3.2km/h 2mph /  3.2km/h 51% 0in /  0.0mm 176 W/m2
17:02 85.3 °F /  29.6 °C 64.6 °F /  18.1 °C 29.8in /  1007.5hPa East 2mph /  3.2km/h 3mph /  4.8km/h 50% 0in /  0.0mm 186 W/m2
17:07 84.9 °F /  29.4 °C 65.3 °F /  18.5 °C 29.8in /  1007.5hPa Calm   2mph /  3.2km/h 52% 0in /  0.0mm 246 W/m2
17:12 84.9 °F /  29.4 °C 64.8 °F /  18.2 °C 29.8in /  1007.5hPa Calm   3mph /  4.8km/h 51% 0in /  0.0mm 237 W/m2
17:17 84.9 °F /  29.4 °C 64.8 °F /  18.2 °C 29.7in /  1007.1hPa East 2.9mph /  4.7km/h 3mph /  4.8km/h 51% 0in /  0.0mm 241 W/m2
17:22 84.9 °F /  29.4 °C 64.8 °F /  18.2 °C 29.7in /  1007.1hPa ESE 0.9mph /  1.4km/h 3mph /  4.8km/h 51% 0in /  0.0mm 445 W/m2
17:27 84.9 °F /  29.4 °C 65.8 °F /  18.8 °C 29.7in /  1007.1hPa Calm   2mph /  3.2km/h 53% 0in /  0.0mm 127 W/m2
17:32 84.7 °F /  29.3 °C 65.7 °F /  18.7 °C 29.7in /  1007.1hPa Calm   1mph /  1.6km/h 53% 0in /  0.0mm 153 W/m2
17:37 84.7 °F /  29.3 °C 67.3 °F /  19.6 °C 29.7in /  1007.1hPa ENE 0.9mph /  1.4km/h 1mph /  1.6km/h 56% 0in /  0.0mm 255 W/m2
17:42 84 °F /  28.9 °C 66.6 °F /  19.2 °C 29.7in /  1007.1hPa WNW 0.9mph /  1.4km/h 4mph /  6.4km/h 56% 0in /  0.0mm 125 W/m2
17:47 83.5 °F /  28.6 °C 68.5 °F /  20.3 °C 29.7in /  1007.1hPa Calm     61% 0in /  0.0mm 107 W/m2
17:52 82.8 °F /  28.2 °C 68.4 °F /  20.2 °C 29.7in /  1007.1hPa Calm   4mph /  6.4km/h 62% 0in /  0.0mm 109 W/m2
17:57 82 °F /  27.8 °C 68.2 °F /  20.1 °C 29.7in /  1006.8hPa West 2mph /  3.2km/h 2mph /  3.2km/h 63% 0in /  0.0mm 98 W/m2
18:02 81.3 °F /  27.4 °C 68 °F /  20 °C 29.7in /  1006.8hPa Calm   1mph /  1.6km/h 64% 0in /  0.0mm 90 W/m2
18:07 81 °F /  27.2 °C 68 °F /  20 °C 29.7in /  1006.8hPa West 2mph /  3.2km/h 2mph /  3.2km/h 65% 0in /  0.0mm 102 W/m2
18:12 80.8 °F /  27.1 °C 68.4 °F /  20.2 °C 29.7in /  1006.8hPa Calm     66% 0in /  0.0mm 114 W/m2
18:17 80.6 °F /  27 °C 68.2 °F /  20.1 °C 29.7in /  1006.8hPa Calm     66% 0in /  0.0mm 137 W/m2
18:22 80.6 °F /  27 °C 67.3 °F /  19.6 °C 29.7in /  1006.8hPa Calm   2mph /  3.2km/h 64% 0in /  0.0mm 165 W/m2
18:27 80.8 °F /  27.1 °C 68 °F /  20 °C 29.7in /  1006.4hPa Calm   1mph /  1.6km/h 65% 0in /  0.0mm 329 W/m2
18:32 81.3 °F /  27.4 °C 68 °F /  20 °C 29.7in /  1006.4hPa Calm     64% 0in /  0.0mm 237 W/m2
18:37 81.9 °F /  27.7 °C 68 °F /  20 °C 29.7in /  1006.4hPa Calm   2mph /  3.2km/h 63% 0in /  0.0mm 188 W/m2
18:42 82.2 °F /  27.9 °C 68.4 °F /  20.2 °C 29.7in /  1006.4hPa Calm   1mph /  1.6km/h 63% 0in /  0.0mm 197 W/m2
18:47 82.8 °F /  28.2 °C 69.8 °F /  21 °C 29.7in /  1006.4hPa Calm   2mph /  3.2km/h 65% 0in /  0.0mm 169 W/m2
18:52 82.8 °F /  28.2 °C 68.9 °F /  20.5 °C 29.7in /  1006.4hPa Calm   1mph /  1.6km/h 63% 0in /  0.0mm 139 W/m2
18:57 82.8 °F /  28.2 °C 68 °F /  20 °C 29.7in /  1006.4hPa West 0.9mph /  1.4km/h 2mph /  3.2km/h 61% 0in /  0.0mm 102 W/m2
19:02 82.6 °F /  28.1 °C 67.8 °F /  19.9 °C 29.7in /  1006.4hPa West 0.9mph /  1.4km/h 1mph /  1.6km/h 61% 0in /  0.0mm 97 W/m2
19:07 83.1 °F /  28.4 °C 68.7 °F /  20.4 °C 29.7in /  1006.1hPa Calm   2mph /  3.2km/h 62% 0in /  0.0mm 104 W/m2
19:12 83.7 °F /  28.7 °C 68.7 °F /  20.4 °C 29.7in /  1006.1hPa Calm   1mph /  1.6km/h 61% 0in /  0.0mm 93 W/m2
19:17 84 °F /  28.9 °C 68.2 °F /  20.1 °C 29.7in /  1006.1hPa Calm   1mph /  1.6km/h 59% 0in /  0.0mm 105 W/m2
19:22 84 °F /  28.9 °C 68.7 °F /  20.4 °C 29.7in /  1006.1hPa Calm     60% 0in /  0.0mm 105 W/m2
19:27 83.8 °F /  28.8 °C 68.5 °F /  20.3 °C 29.7in /  1006.1hPa Calm   1mph /  1.6km/h 60% 0in /  0.0mm 105 W/m2
19:32 83.5 °F /  28.6 °C 68.5 °F /  20.3 °C 29.7in /  1006.1hPa West 0.9mph /  1.4km/h 1mph /  1.6km/h 61% 0in /  0.0mm 104 W/m2
19:37 82.8 °F /  28.2 °C 68.4 °F /  20.2 °C 29.7in /  1006.1hPa Calm   1mph /  1.6km/h 62% 0in /  0.0mm 102 W/m2
19:42 82.2 °F /  27.9 °C 67.5 °F /  19.7 °C 29.7in /  1006.1hPa West 0.9mph /  1.4km/h 2mph /  3.2km/h 61% 0in /  0.0mm 109 W/m2
19:47 82 °F /  27.8 °C 67.3 °F /  19.6 °C 29.7in /  1006.1hPa WSW 0.9mph /  1.4km/h 2mph /  3.2km/h 61% 0in /  0.0mm 113 W/m2
19:52 81.7 °F /  27.6 °C 67.5 °F /  19.7 °C 29.7in /  1006.1hPa WSW 0.9mph /  1.4km/h 2mph /  3.2km/h 62% 0in /  0.0mm 109 W/m2
19:57 81.3 °F /  27.4 °C 67.5 °F /  19.7 °C 29.7in /  1006.1hPa Calm   1mph /  1.6km/h 63% 0in /  0.0mm 105 W/m2
20:02 81.1 °F /  27.3 °C 67.3 °F /  19.6 °C 29.7in /  1006.1hPa Calm   1mph /  1.6km/h 63% 0in /  0.0mm 91 W/m2
20:07 81 °F /  27.2 °C 67.6 °F /  19.8 °C 29.7in /  1006.4hPa Calm     64% 0in /  0.0mm 76 W/m2
20:12 80.8 °F /  27.1 °C 67.5 °F /  19.7 °C 29.7in /  1006.4hPa Calm   1mph /  1.6km/h 64% 0in /  0.0mm 63 W/m2
20:17 80.4 °F /  26.9 °C 67.6 °F /  19.8 °C 29.7in /  1006.1hPa Calm   1mph /  1.6km/h 65% 0in /  0.0mm 53 W/m2
20:22 80.2 °F /  26.8 °C 67.8 °F /  19.9 °C 29.7in /  1006.1hPa Calm     66% 0in /  0.0mm 44 W/m2
20:27 80.1 °F /  26.7 °C 67.3 °F /  19.6 °C 29.7in /  1006.1hPa Calm   1mph /  1.6km/h 65% 0in /  0.0mm 33 W/m2
20:32 79.9 °F /  26.6 °C 67.5 °F /  19.7 °C 29.7in /  1006.1hPa Calm     66% 0in /  0.0mm 28 W/m2
20:37 79.3 °F /  26.3 °C 66.6 °F /  19.2 °C 29.7in /  1006.1hPa Calm     65% 0in /  0.0mm 25 W/m2
20:42 79.2 °F /  26.2 °C 66.7 °F /  19.3 °C 29.7in /  1005.8hPa Calm     66% 0in /  0.0mm 21 W/m2
20:47 78.6 °F /  25.9 °C 66.4 °F /  19.1 °C 29.7in /  1005.8hPa Calm   1mph /  1.6km/h 66% 0in /  0.0mm 19 W/m2
20:52 78.4 °F /  25.8 °C 66.6 °F /  19.2 °C 29.7in /  1005.8hPa Calm   1mph /  1.6km/h 67% 0in /  0.0mm 14 W/m2
20:57 78.3 °F /  25.7 °C 65.5 °F /  18.6 °C 29.7in /  1005.8hPa Calm   1mph /  1.6km/h 65% 0in /  0.0mm 12 W/m2
21:02 78.3 °F /  25.7 °C 66.4 °F /  19.1 °C 29.7in /  1005.8hPa Calm     67% 0in /  0.0mm 9 W/m2
21:07 78.1 °F /  25.6 °C 66.7 °F /  19.3 °C 29.7in /  1005.8hPa Calm   1mph /  1.6km/h 68% 0in /  0.0mm 7 W/m2
21:12 77.7 °F /  25.4 °C 66.4 °F /  19.1 °C 29.7in /  1005.4hPa Calm     68% 0in /  0.0mm 5 W/m2
21:17 77.5 °F /  25.3 °C 66.2 °F /  19 °C 29.7in /  1005.4hPa WSW 0.9mph /  1.4km/h 2mph /  3.2km/h 68% 0in /  0.0mm 0 W/m2
21:22 77.2 °F /  25.1 °C 66.6 °F /  19.2 °C 29.7in /  1005.4hPa Calm     70% 0in /  0.0mm 0 W/m2
21:27 77 °F /  25 °C 66.4 °F /  19.1 °C 29.7in /  1005.8hPa West 2.9mph /  4.7km/h 3mph /  4.8km/h 70% 0in /  0.0mm 0 W/m2
21:32 76.1 °F /  24.5 °C 66.7 °F /  19.3 °C 29.7in /  1006.8hPa NE 2.9mph /  4.7km/h 22mph /  35.4km/h 73% 0.02in /  0.5mm 0 W/m2
21:37 73.6 °F /  23.1 °C 66.7 °F /  19.3 °C 29.7in /  1007.1hPa WSW 13mph /  20.9km/h 18mph /  29km/h 79% 0.2in /  5.1mm 0 W/m2
21:42 70.2 °F /  21.2 °C 64.8 °F /  18.2 °C 29.7in /  1007.1hPa West 6mph /  9.7km/h 21mph /  33.8km/h 83% 0.29in /  7.4mm 0 W/m2
21:47 68.5 °F /  20.3 °C 63.9 °F /  17.7 °C 29.7in /  1006.4hPa WSW 2.9mph /  4.7km/h 9mph /  14.5km/h 85% 0.38in /  9.7mm 0 W/m2
21:52 67.5 °F /  19.7 °C 63.1 °F /  17.3 °C 29.7in /  1006.4hPa West 2.9mph /  4.7km/h 6mph /  9.7km/h 86% 0.38in /  9.7mm 0 W/m2
21:57 66.7 °F /  19.3 °C 62.8 °F /  17.1 °C 29.7in /  1006.4hPa West 6mph /  9.7km/h 9mph /  14.5km/h 87% 0.38in /  9.7mm 0 W/m2
22:02 66.4 °F /  19.1 °C 62.8 °F /  17.1 °C 29.7in /  1006.8hPa WSW 4mph /  6.4km/h 10mph /  16.1km/h 88% 0.38in /  9.7mm 0 W/m2
22:07 66.2 °F /  19 °C 63.1 °F /  17.3 °C 29.7in /  1007.1hPa WNW 2.9mph /  4.7km/h 11mph /  17.7km/h 90% 0.38in /  9.7mm 0 W/m2
22:12 66 °F /  18.9 °C 63 °F /  17.2 °C 29.8in /  1007.5hPa WNW 2.9mph /  4.7km/h 11mph /  17.7km/h 90% 0.38in /  9.7mm 0 W/m2
22:17 65.8 °F /  18.8 °C 62.4 °F /  16.9 °C 29.8in /  1007.8hPa SW 0.9mph /  1.4km/h 4mph /  6.4km/h 89% 0.38in /  9.7mm 0 W/m2
22:22 65.8 °F /  18.8 °C 62.8 °F /  17.1 °C 29.8in /  1007.8hPa East 0.9mph /  1.4km/h 11mph /  17.7km/h 90% 0.38in /  9.7mm 0 W/m2
22:27 65.7 °F /  18.7 °C 62.6 °F /  17 °C 29.8in /  1007.8hPa WNW 0.9mph /  1.4km/h 2mph /  3.2km/h 90% 0.38in /  9.7mm 0 W/m2
22:32 65.7 °F /  18.7 °C 62.6 °F /  17 °C 29.8in /  1007.8hPa West 0.9mph /  1.4km/h 3mph /  4.8km/h 90% 0.36in /  9.1mm 0 W/m2
22:37 65.7 °F /  18.7 °C 62.6 °F /  17 °C 29.8in /  1007.8hPa West 0.9mph /  1.4km/h 2mph /  3.2km/h 90% 0.17in /  4.3mm 0 W/m2
22:42 65.7 °F /  18.7 °C 63 °F /  17.2 °C 29.8in /  1008.1hPa Calm   2mph /  3.2km/h 91% 0.09in /  2.3mm 0 W/m2
22:47 65.5 °F /  18.6 °C 62.4 °F /  16.9 °C 29.8in /  1008.1hPa Calm   1mph /  1.6km/h 90% 0in /  0.0mm 0 W/m2
22:52 65.7 °F /  18.7 °C 62.6 °F /  17 °C 29.8in /  1008.1hPa Calm   2mph /  3.2km/h 90% 0in /  0.0mm 0 W/m2
22:57 65.7 °F /  18.7 °C 62.6 °F /  17 °C 29.8in /  1008.1hPa Calm   2mph /  3.2km/h 90% 0in /  0.0mm 0 W/m2
23:02 65.7 °F /  18.7 °C 63 °F /  17.2 °C 29.8in /  1008.1hPa NW 0.9mph /  1.4km/h 1mph /  1.6km/h 91% 0in /  0.0mm 0 W/m2
23:07 65.5 °F /  18.6 °C 62.8 °F /  17.1 °C 29.8in /  1008.5hPa Calm   2mph /  3.2km/h 91% 0in /  0.0mm 0 W/m2
23:12 65.5 °F /  18.6 °C 63.1 °F /  17.3 °C 29.8in /  1008.5hPa NW 2mph /  3.2km/h 2mph /  3.2km/h 92% 0in /  0.0mm 0 W/m2
23:17 65.3 °F /  18.5 °C 63 °F /  17.2 °C 29.8in /  1008.5hPa NW 0.9mph /  1.4km/h 1mph /  1.6km/h 92% 0in /  0.0mm 0 W/m2
23:22 65.1 °F /  18.4 °C 62.8 °F /  17.1 °C 29.8in /  1008.5hPa NW 0.9mph /  1.4km/h 1mph /  1.6km/h 92% 0in /  0.0mm 0 W/m2
23:27 65.1 °F /  18.4 °C 63 °F /  17.2 °C 29.8in /  1008.5hPa NW 0.9mph /  1.4km/h 1mph /  1.6km/h 93% 0in /  0.0mm 0 W/m2
23:32 64.9 °F /  18.3 °C 62.6 °F /  17 °C 29.8in /  1008.5hPa WNW 2mph /  3.2km/h 2mph /  3.2km/h 92% 0in /  0.0mm 0 W/m2
23:37 64.8 °F /  18.2 °C 62.6 °F /  17 °C 29.8in /  1008.1hPa Calm   2mph /  3.2km/h 93% 0in /  0.0mm 0 W/m2
23:42 64.8 °F /  18.2 °C 62.6 °F /  17 °C 29.8in /  1008.1hPa Calm   1mph /  1.6km/h 93% 0in /  0.0mm 0 W/m2
23:47 64.8 °F /  18.2 °C 62.6 °F /  17 °C 29.8in /  1008.5hPa Calm   1mph /  1.6km/h 93% 0in /  0.0mm 0 W/m2
23:52 64.6 °F /  18.1 °C 62.4 °F /  16.9 °C 29.8in /  1008.5hPa WSW 0.9mph /  1.4km/h 1mph /  1.6km/h 93% 0in /  0.0mm 0 W/m2
23:57 64.4 °F /  18 °C 62.4 °F /  16.9 °C 29.8in /  1008.1hPa Calm     93% 0in /  0.0mm 0 W/m2
Juneau County Weather
Compliments of Weather Underground - 4 mb